sensor_id;sensor_type;location;lat;lon;timestamp;pressure;altitude;pressure_sealevel;temperature;humidity
11349;BME280;5729;43.570;27.826;2023-05-11T00:00:45;99731.09;;;7.46;100.00
11349;BME280;5729;43.570;27.826;2023-05-11T00:03:10;99729.84;;;7.44;100.00
11349;BME280;5729;43.570;27.826;2023-05-11T00:05:36;99731.88;;;7.47;100.00
11349;BME280;5729;43.570;27.826;2023-05-11T00:08:01;99732.53;;;7.44;100.00
11349;BME280;5729;43.570;27.826;2023-05-11T00:10:27;99726.38;;;7.35;100.00
11349;BME280;5729;43.570;27.826;2023-05-11T00:12:54;99729.25;;;7.29;100.00
11349;BME280;5729;43.570;27.826;2023-05-11T00:15:19;99721.56;;;7.11;100.00
11349;BME280;5729;43.570;27.826;2023-05-11T00:17:45;99727.22;;;7.18;100.00
11349;BME280;5729;43.570;27.826;2023-05-11T00:20:10;99728.47;;;7.12;100.00
11349;BME280;5729;43.570;27.826;2023-05-11T00:22:36;99725.78;;;7.03;100.00
11349;BME280;5729;43.570;27.826;2023-05-11T00:25:01;99739.19;;;6.95;100.00
11349;BME280;5729;43.570;27.826;2023-05-11T00:27:27;99742.81;;;6.90;100.00
11349;BME280;5729;43.570;27.826;2023-05-11T00:29:52;99744.72;;;6.81;100.00
11349;BME280;5729;43.570;27.826;2023-05-11T00:32:18;99741.41;;;6.75;100.00
11349;BME280;5729;43.570;27.826;2023-05-11T00:34:43;99741.56;;;6.70;100.00
11349;BME280;5729;43.570;27.826;2023-05-11T00:37:08;99737.63;;;6.76;100.00
11349;BME280;5729;43.570;27.826;2023-05-11T00:39:34;99743.31;;;6.75;100.00
11349;BME280;5729;43.570;27.826;2023-05-11T00:42:04;99743.91;;;6.80;100.00
11349;BME280;5729;43.570;27.826;2023-05-11T00:44:30;99752.28;;;6.79;100.00
11349;BME280;5729;43.570;27.826;2023-05-11T00:46:56;99742.81;;;6.64;100.00
11349;BME280;5729;43.570;27.826;2023-05-11T00:49:23;99742.34;;;6.71;100.00
11349;BME280;5729;43.570;27.826;2023-05-11T00:51:48;99742.81;;;6.73;100.00
11349;BME280;5729;43.570;27.826;2023-05-11T00:54:14;99745.03;;;6.71;100.00
11349;BME280;5729;43.570;27.826;2023-05-11T00:56:40;99740.28;;;6.68;100.00
11349;BME280;5729;43.570;27.826;2023-05-11T00:59:07;99743.78;;;6.77;100.00
11349;BME280;5729;43.570;27.826;2023-05-11T01:01:32;99738.25;;;6.82;100.00
11349;BME280;5729;43.570;27.826;2023-05-11T01:04:00;99742.38;;;6.88;100.00
11349;BME280;5729;43.570;27.826;2023-05-11T01:11:32;99741.25;;;6.72;100.00
11349;BME280;5729;43.570;27.826;2023-05-11T01:14:11;99740.63;;;6.83;100.00
11349;BME280;5729;43.570;27.826;2023-05-11T01:16:39;99737.16;;;6.83;100.00
11349;BME280;5729;43.570;27.826;2023-05-11T01:19:20;99728.16;;;6.70;100.00
11349;BME280;5729;43.570;27.826;2023-05-11T01:21:49;99721.38;;;6.73;100.00
11349;BME280;5729;43.570;27.826;2023-05-11T01:24:36;99722.66;;;6.75;100.00
11349;BME280;5729;43.570;27.826;2023-05-11T01:29:51;99729.13;;;6.74;100.00
11349;BME280;5729;43.570;27.826;2023-05-11T01:32:25;99723.75;;;6.83;100.00
11349;BME280;5729;43.570;27.826;2023-05-11T01:34:59;99713.66;;;6.80;100.00
11349;BME280;5729;43.570;27.826;2023-05-11T01:37:30;99721.22;;;6.78;100.00
11349;BME280;5729;43.570;27.826;2023-05-11T01:39:58;99720.91;;;6.71;100.00
11349;BME280;5729;43.570;27.826;2023-05-11T01:42:39;99716.19;;;6.59;100.00
11349;BME280;5729;43.570;27.826;2023-05-11T01:45:06;99718.84;;;6.59;100.00
11349;BME280;5729;43.570;27.826;2023-05-11T01:47:33;99726.09;;;6.67;100.00
11349;BME280;5729;43.570;27.826;2023-05-11T01:50:00;99717.44;;;6.70;100.00
11349;BME280;5729;43.570;27.826;2023-05-11T01:52:28;99721.53;;;6.68;100.00
11349;BME280;5729;43.570;27.826;2023-05-11T01:54:56;99722.19;;;6.65;100.00
11349;BME280;5729;43.570;27.826;2023-05-11T01:57:24;99709.25;;;6.49;100.00
11349;BME280;5729;43.570;27.826;2023-05-11T01:59:51;99707.03;;;6.43;100.00
11349;BME280;5729;43.570;27.826;2023-05-11T02:02:17;99724.03;;;6.47;100.00
11349;BME280;5729;43.570;27.826;2023-05-11T02:04:44;99715.22;;;6.38;100.00
11349;BME280;5729;43.570;27.826;2023-05-11T02:07:12;99722.28;;;6.34;100.00
11349;BME280;5729;43.570;27.826;2023-05-11T02:09:39;99718.47;;;6.09;100.00
11349;BME280;5729;43.570;27.826;2023-05-11T02:12:06;99709.88;;;5.90;100.00
11349;BME280;5729;43.570;27.826;2023-05-11T02:14:34;99713.91;;;5.78;100.00
11349;BME280;5729;43.570;27.826;2023-05-11T02:17:02;99726.72;;;5.90;100.00
11349;BME280;5729;43.570;27.826;2023-05-11T02:19:30;99722.03;;;5.96;100.00
11349;BME280;5729;43.570;27.826;2023-05-11T02:21:58;99719.19;;;5.92;100.00
11349;BME280;5729;43.570;27.826;2023-05-11T02:24:26;99726.91;;;5.94;100.00
11349;BME280;5729;43.570;27.826;2023-05-11T02:26:53;99730.53;;;5.98;100.00
11349;BME280;5729;43.570;27.826;2023-05-11T02:29:18;99719.97;;;5.93;100.00
11349;BME280;5729;43.570;27.826;2023-05-11T02:31:46;99719.13;;;5.83;100.00
11349;BME280;5729;43.570;27.826;2023-05-11T02:34:17;99720.53;;;5.81;100.00
11349;BME280;5729;43.570;27.826;2023-05-11T02:36:47;99723.06;;;5.86;100.00
11349;BME280;5729;43.570;27.826;2023-05-11T02:39:17;99724.47;;;5.83;100.00
11349;BME280;5729;43.570;27.826;2023-05-11T02:41:55;99719.09;;;5.75;100.00
11349;BME280;5729;43.570;27.826;2023-05-11T02:44:26;99721.59;;;5.71;100.00
11349;BME280;5729;43.570;27.826;2023-05-11T02:46:52;99719.88;;;5.75;100.00
11349;BME280;5729;43.570;27.826;2023-05-11T02:49:21;99735.59;;;5.77;100.00
11349;BME280;5729;43.570;27.826;2023-05-11T02:51:49;99736.06;;;5.70;100.00
11349;BME280;5729;43.570;27.826;2023-05-11T02:54:16;99731.69;;;5.74;100.00
11349;BME280;5729;43.570;27.826;2023-05-11T02:56:43;99740.78;;;5.73;100.00
11349;BME280;5729;43.570;27.826;2023-05-11T02:59:09;99725.00;;;5.63;100.00
11349;BME280;5729;43.570;27.826;2023-05-11T03:01:35;99728.16;;;5.65;100.00
11349;BME280;5729;43.570;27.826;2023-05-11T03:04:03;99731.69;;;5.74;100.00
11349;BME280;5729;43.570;27.826;2023-05-11T03:06:29;99729.03;;;5.83;100.00
11349;BME280;5729;43.570;27.826;2023-05-11T03:08:55;99733.91;;;5.81;100.00
11349;BME280;5729;43.570;27.826;2023-05-11T03:11:21;99729.81;;;5.83;100.00
11349;BME280;5729;43.570;27.826;2023-05-11T03:13:47;99719.91;;;5.84;100.00
11349;BME280;5729;43.570;27.826;2023-05-11T03:16:15;99727.88;;;5.98;100.00
11349;BME280;5729;43.570;27.826;2023-05-11T03:18:41;99723.47;;;6.02;100.00
11349;BME280;5729;43.570;27.826;2023-05-11T03:21:08;99742.06;;;6.07;100.00
11349;BME280;5729;43.570;27.826;2023-05-11T03:23:34;99746.66;;;6.15;100.00
11349;BME280;5729;43.570;27.826;2023-05-11T03:26:01;99749.94;;;6.12;100.00
11349;BME280;5729;43.570;27.826;2023-05-11T03:28:29;99737.63;;;6.02;100.00
11349;BME280;5729;43.570;27.826;2023-05-11T03:30:55;99751.88;;;6.20;100.00
11349;BME280;5729;43.570;27.826;2023-05-11T03:33:21;99735.97;;;6.32;100.00
11349;BME280;5729;43.570;27.826;2023-05-11T03:35:48;99741.00;;;6.34;100.00
11349;BME280;5729;43.570;27.826;2023-05-11T03:38:15;99737.72;;;6.37;100.00
11349;BME280;5729;43.570;27.826;2023-05-11T03:40:41;99742.47;;;6.40;100.00
11349;BME280;5729;43.570;27.826;2023-05-11T03:43:10;99746.88;;;6.44;100.00
11349;BME280;5729;43.570;27.826;2023-05-11T03:45:37;99721.97;;;6.27;100.00
11349;BME280;5729;43.570;27.826;2023-05-11T03:48:05;99747.03;;;6.39;100.00
11349;BME280;5729;43.570;27.826;2023-05-11T03:50:32;99739.00;;;6.39;100.00
11349;BME280;5729;43.570;27.826;2023-05-11T03:52:59;99751.13;;;6.45;100.00
11349;BME280;5729;43.570;27.826;2023-05-11T03:55:25;99742.59;;;6.43;100.00
11349;BME280;5729;43.570;27.826;2023-05-11T03:57:51;99754.88;;;6.36;100.00
11349;BME280;5729;43.570;27.826;2023-05-11T04:00:17;99753.97;;;6.40;100.00
11349;BME280;5729;43.570;27.826;2023-05-11T04:02:42;99749.88;;;6.51;100.00
11349;BME280;5729;43.570;27.826;2023-05-11T04:05:09;99742.66;;;6.52;100.00
11349;BME280;5729;43.570;27.826;2023-05-11T04:07:36;99759.19;;;6.63;100.00
11349;BME280;5729;43.570;27.826;2023-05-11T04:10:03;99762.19;;;6.70;100.00
11349;BME280;5729;43.570;27.826;2023-05-11T04:12:29;99765.53;;;6.75;100.00
11349;BME280;5729;43.570;27.826;2023-05-11T04:14:54;99762.06;;;6.83;100.00
11349;BME280;5729;43.570;27.826;2023-05-11T04:17:20;99764.25;;;6.90;100.00
11349;BME280;5729;43.570;27.826;2023-05-11T04:19:45;99767.09;;;6.93;100.00
11349;BME280;5729;43.570;27.826;2023-05-11T04:22:10;99764.91;;;6.96;100.00
11349;BME280;5729;43.570;27.826;2023-05-11T04:24:37;99768.53;;;7.00;100.00
11349;BME280;5729;43.570;27.826;2023-05-11T04:27:02;99765.34;;;7.15;100.00
11349;BME280;5729;43.570;27.826;2023-05-11T04:29:28;99777.31;;;7.35;100.00
11349;BME280;5729;43.570;27.826;2023-05-11T04:31:54;99775.44;;;7.35;100.00
11349;BME280;5729;43.570;27.826;2023-05-11T04:34:19;99784.25;;;7.53;100.00
11349;BME280;5729;43.570;27.826;2023-05-11T04:36:47;99777.56;;;7.68;100.00
11349;BME280;5729;43.570;27.826;2023-05-11T04:39:12;99775.81;;;7.89;100.00
11349;BME280;5729;43.570;27.826;2023-05-11T04:41:38;99769.28;;;7.98;100.00
11349;BME280;5729;43.570;27.826;2023-05-11T04:44:04;99779.34;;;8.10;100.00
11349;BME280;5729;43.570;27.826;2023-05-11T04:46:29;99780.88;;;8.20;100.00
11349;BME280;5729;43.570;27.826;2023-05-11T04:48:54;99775.16;;;8.30;100.00
11349;BME280;5729;43.570;27.826;2023-05-11T04:51:20;99781.75;;;8.41;100.00
11349;BME280;5729;43.570;27.826;2023-05-11T04:53:45;99770.16;;;8.49;100.00
11349;BME280;5729;43.570;27.826;2023-05-11T04:56:11;99778.84;;;8.55;100.00
11349;BME280;5729;43.570;27.826;2023-05-11T04:58:36;99776.63;;;8.57;100.00
11349;BME280;5729;43.570;27.826;2023-05-11T05:01:02;99786.47;;;8.73;100.00
11349;BME280;5729;43.570;27.826;2023-05-11T05:03:28;99793.16;;;8.88;100.00
11349;BME280;5729;43.570;27.826;2023-05-11T05:05:54;99789.50;;;9.14;100.00
11349;BME280;5729;43.570;27.826;2023-05-11T05:08:19;99787.44;;;9.31;100.00
11349;BME280;5729;43.570;27.826;2023-05-11T05:10:46;99789.38;;;9.43;100.00
11349;BME280;5729;43.570;27.826;2023-05-11T05:13:11;99786.94;;;9.50;100.00
11349;BME280;5729;43.570;27.826;2023-05-11T05:15:37;99796.94;;;9.62;100.00
11349;BME280;5729;43.570;27.826;2023-05-11T05:18:02;99787.38;;;9.85;100.00
11349;BME280;5729;43.570;27.826;2023-05-11T05:20:28;99789.94;;;9.94;100.00
11349;BME280;5729;43.570;27.826;2023-05-11T05:22:53;99793.69;;;10.13;100.00
11349;BME280;5729;43.570;27.826;2023-05-11T05:25:19;99787.91;;;10.36;100.00
11349;BME280;5729;43.570;27.826;2023-05-11T05:27:45;99804.63;;;10.53;100.00
11349;BME280;5729;43.570;27.826;2023-05-11T05:30:11;99797.50;;;10.73;100.00
11349;BME280;5729;43.570;27.826;2023-05-11T05:32:36;99803.88;;;11.05;100.00
11349;BME280;5729;43.570;27.826;2023-05-11T05:35:02;99797.34;;;11.34;100.00
11349;BME280;5729;43.570;27.826;2023-05-11T05:37:28;99801.47;;;11.72;100.00
11349;BME280;5729;43.570;27.826;2023-05-11T05:39:53;99800.47;;;11.92;100.00
11349;BME280;5729;43.570;27.826;2023-05-11T05:42:19;99798.06;;;12.18;100.00
11349;BME280;5729;43.570;27.826;2023-05-11T05:44:44;99804.75;;;12.40;100.00
11349;BME280;5729;43.570;27.826;2023-05-11T05:47:10;99799.59;;;12.51;100.00
11349;BME280;5729;43.570;27.826;2023-05-11T05:49:35;99794.59;;;12.53;100.00
11349;BME280;5729;43.570;27.826;2023-05-11T05:52:01;99807.13;;;12.77;100.00
11349;BME280;5729;43.570;27.826;2023-05-11T05:54:26;99803.09;;;12.86;100.00
11349;BME280;5729;43.570;27.826;2023-05-11T05:56:51;99800.81;;;12.88;100.00
11349;BME280;5729;43.570;27.826;2023-05-11T05:59:17;99806.22;;;13.23;100.00
11349;BME280;5729;43.570;27.826;2023-05-11T06:01:45;99809.19;;;13.57;100.00
11349;BME280;5729;43.570;27.826;2023-05-11T06:04:12;99817.50;;;13.67;100.00
11349;BME280;5729;43.570;27.826;2023-05-11T06:06:37;99802.41;;;13.66;100.00
11349;BME280;5729;43.570;27.826;2023-05-11T06:09:03;99815.09;;;13.62;100.00
11349;BME280;5729;43.570;27.826;2023-05-11T06:11:28;99814.13;;;13.51;100.00
11349;BME280;5729;43.570;27.826;2023-05-11T06:13:54;99809.38;;;13.67;100.00
11349;BME280;5729;43.570;27.826;2023-05-11T06:16:19;99808.75;;;13.74;100.00
11349;BME280;5729;43.570;27.826;2023-05-11T06:18:45;99816.41;;;13.91;100.00
11349;BME280;5729;43.570;27.826;2023-05-11T06:21:10;99803.22;;;14.12;100.00
11349;BME280;5729;43.570;27.826;2023-05-11T06:23:36;99817.44;;;14.29;100.00
11349;BME280;5729;43.570;27.826;2023-05-11T06:26:01;99817.31;;;14.22;100.00
11349;BME280;5729;43.570;27.826;2023-05-11T06:28:27;99827.25;;;14.14;100.00
11349;BME280;5729;43.570;27.826;2023-05-11T06:30:55;99825.31;;;14.37;100.00
11349;BME280;5729;43.570;27.826;2023-05-11T06:33:23;99814.38;;;14.53;100.00
11349;BME280;5729;43.570;27.826;2023-05-11T06:35:49;99817.34;;;14.44;100.00
11349;BME280;5729;43.570;27.826;2023-05-11T06:38:14;99819.78;;;14.30;100.00
11349;BME280;5729;43.570;27.826;2023-05-11T06:40:40;99823.47;;;14.41;100.00
11349;BME280;5729;43.570;27.826;2023-05-11T06:43:05;99819.00;;;14.52;100.00
11349;BME280;5729;43.570;27.826;2023-05-11T06:45:31;99820.03;;;14.71;100.00
11349;BME280;5729;43.570;27.826;2023-05-11T06:47:56;99821.13;;;14.93;100.00
11349;BME280;5729;43.570;27.826;2023-05-11T06:50:22;99818.13;;;15.01;100.00
11349;BME280;5729;43.570;27.826;2023-05-11T06:52:47;99813.47;;;14.98;100.00
11349;BME280;5729;43.570;27.826;2023-05-11T06:55:12;99813.53;;;15.05;100.00
11349;BME280;5729;43.570;27.826;2023-05-11T06:57:38;99814.28;;;15.02;100.00
11349;BME280;5729;43.570;27.826;2023-05-11T07:00:05;99815.84;;;15.03;100.00
11349;BME280;5729;43.570;27.826;2023-05-11T07:02:30;99801.75;;;14.94;100.00
11349;BME280;5729;43.570;27.826;2023-05-11T07:04:56;99807.28;;;15.01;100.00
11349;BME280;5729;43.570;27.826;2023-05-11T07:07:22;99798.75;;;14.99;100.00
11349;BME280;5729;43.570;27.826;2023-05-11T07:09:48;99804.19;;;15.33;100.00
11349;BME280;5729;43.570;27.826;2023-05-11T07:12:13;99802.63;;;15.32;100.00
11349;BME280;5729;43.570;27.826;2023-05-11T07:14:39;99810.56;;;15.47;100.00
11349;BME280;5729;43.570;27.826;2023-05-11T07:17:04;99809.53;;;15.55;100.00
11349;BME280;5729;43.570;27.826;2023-05-11T07:19:30;99803.19;;;15.81;100.00
11349;BME280;5729;43.570;27.826;2023-05-11T07:21:56;99807.72;;;15.70;100.00
11349;BME280;5729;43.570;27.826;2023-05-11T07:24:21;99825.91;;;15.63;100.00
11349;BME280;5729;43.570;27.826;2023-05-11T07:26:47;99817.19;;;15.80;100.00
11349;BME280;5729;43.570;27.826;2023-05-11T07:29:14;99809.81;;;15.84;100.00
11349;BME280;5729;43.570;27.826;2023-05-11T07:31:39;99817.34;;;15.97;100.00
11349;BME280;5729;43.570;27.826;2023-05-11T07:34:05;99818.94;;;16.02;100.00
11349;BME280;5729;43.570;27.826;2023-05-11T07:36:31;99822.34;;;15.95;100.00
11349;BME280;5729;43.570;27.826;2023-05-11T07:38:57;99813.56;;;15.69;100.00
11349;BME280;5729;43.570;27.826;2023-05-11T07:41:23;99815.31;;;15.87;100.00
11349;BME280;5729;43.570;27.826;2023-05-11T07:43:53;99820.19;;;16.12;100.00
11349;BME280;5729;43.570;27.826;2023-05-11T07:46:18;99826.88;;;16.21;100.00
11349;BME280;5729;43.570;27.826;2023-05-11T07:48:43;99820.78;;;16.35;100.00
11349;BME280;5729;43.570;27.826;2023-05-11T07:51:10;99826.56;;;16.30;96.39
11349;BME280;5729;43.570;27.826;2023-05-11T07:53:35;99829.00;;;16.42;98.03
11349;BME280;5729;43.570;27.826;2023-05-11T07:56:01;99826.50;;;16.74;96.60
11349;BME280;5729;43.570;27.826;2023-05-11T07:58:28;99820.41;;;16.95;92.97
11349;BME280;5729;43.570;27.826;2023-05-11T08:00:53;99818.41;;;17.75;86.01
11349;BME280;5729;43.570;27.826;2023-05-11T08:03:19;99816.16;;;18.62;74.64
11349;BME280;5729;43.570;27.826;2023-05-11T08:05:44;99815.34;;;18.79;70.70
11349;BME280;5729;43.570;27.826;2023-05-11T08:08:10;99812.59;;;18.90;67.85
11349;BME280;5729;43.570;27.826;2023-05-11T08:10:35;99808.47;;;19.48;64.95
11349;BME280;5729;43.570;27.826;2023-05-11T08:13:01;99811.94;;;19.63;62.28
11349;BME280;5729;43.570;27.826;2023-05-11T08:15:26;99813.31;;;19.08;61.76
11349;BME280;5729;43.570;27.826;2023-05-11T08:17:52;99813.97;;;21.33;59.34
11349;BME280;5729;43.570;27.826;2023-05-11T08:20:18;99812.31;;;24.38;47.38
11349;BME280;5729;43.570;27.826;2023-05-11T08:22:43;99811.59;;;24.95;41.55
11349;BME280;5729;43.570;27.826;2023-05-11T08:25:10;99813.44;;;26.07;39.87
11349;BME280;5729;43.570;27.826;2023-05-11T08:27:35;99811.31;;;29.20;33.55
11349;BME280;5729;43.570;27.826;2023-05-11T08:30:02;99811.81;;;30.03;32.09
11349;BME280;5729;43.570;27.826;2023-05-11T08:32:28;99819.97;;;29.73;30.81
11349;BME280;5729;43.570;27.826;2023-05-11T08:34:54;99825.78;;;28.69;31.14
11349;BME280;5729;43.570;27.826;2023-05-11T08:37:19;99820.84;;;27.88;32.77
11349;BME280;5729;43.570;27.826;2023-05-11T08:39:45;99808.63;;;31.64;29.58
11349;BME280;5729;43.570;27.826;2023-05-11T08:42:16;99795.97;;;31.98;27.07
11349;BME280;5729;43.570;27.826;2023-05-11T08:44:42;99805.94;;;31.40;26.74
11349;BME280;5729;43.570;27.826;2023-05-11T08:47:09;99803.91;;;30.10;28.13
11349;BME280;5729;43.570;27.826;2023-05-11T08:49:35;99798.16;;;27.71;30.18
11349;BME280;5729;43.570;27.826;2023-05-11T08:52:03;99783.41;;;26.43;33.18
11349;BME280;5729;43.570;27.826;2023-05-11T08:54:30;99794.53;;;26.87;31.66
11349;BME280;5729;43.570;27.826;2023-05-11T08:56:56;99804.72;;;29.59;29.15
11349;BME280;5729;43.570;27.826;2023-05-11T08:59:23;99802.63;;;29.87;28.10
11349;BME280;5729;43.570;27.826;2023-05-11T09:01:50;99792.63;;;27.49;30.26
11349;BME280;5729;43.570;27.826;2023-05-11T09:04:17;99797.53;;;24.89;33.44
11349;BME280;5729;43.570;27.826;2023-05-11T09:06:44;99785.94;;;24.20;35.55
11349;BME280;5729;43.570;27.826;2023-05-11T09:09:09;99796.75;;;23.43;35.89
11349;BME280;5729;43.570;27.826;2023-05-11T09:11:35;99794.91;;;22.34;36.90
11349;BME280;5729;43.570;27.826;2023-05-11T09:14:00;99780.13;;;21.13;40.60
11349;BME280;5729;43.570;27.826;2023-05-11T09:16:26;99792.84;;;20.59;44.19
11349;BME280;5729;43.570;27.826;2023-05-11T09:18:52;99790.66;;;21.18;43.33
11349;BME280;5729;43.570;27.826;2023-05-11T09:21:19;99787.63;;;21.70;45.60
11349;BME280;5729;43.570;27.826;2023-05-11T09:23:48;99776.66;;;22.67;41.46
11349;BME280;5729;43.570;27.826;2023-05-11T09:26:19;99777.91;;;23.94;37.89
11349;BME280;5729;43.570;27.826;2023-05-11T09:28:49;99766.19;;;24.83;37.59
11349;BME280;5729;43.570;27.826;2023-05-11T09:34:15;99766.81;;;29.56;31.73
11349;BME280;5729;43.570;27.826;2023-05-11T09:36:45;99765.31;;;29.28;32.92
11349;BME280;5729;43.570;27.826;2023-05-11T09:39:11;99768.81;;;27.92;33.54
11349;BME280;5729;43.570;27.826;2023-05-11T09:41:37;99773.84;;;26.57;35.64
11349;BME280;5729;43.570;27.826;2023-05-11T09:44:10;99767.88;;;25.22;37.24
11349;BME280;5729;43.570;27.826;2023-05-11T09:46:37;99769.88;;;24.64;38.45
11349;BME280;5729;43.570;27.826;2023-05-11T09:49:04;99763.03;;;23.75;39.89
11349;BME280;5729;43.570;27.826;2023-05-11T09:51:31;99770.38;;;23.45;44.25
11349;BME280;5729;43.570;27.826;2023-05-11T09:53:57;99763.56;;;24.35;43.32
11349;BME280;5729;43.570;27.826;2023-05-11T09:56:42;99756.00;;;26.70;35.00
11349;BME280;5729;43.570;27.826;2023-05-11T09:59:08;99753.50;;;27.69;33.85
11349;BME280;5729;43.570;27.826;2023-05-11T10:01:34;99753.53;;;29.84;31.43
11349;BME280;5729;43.570;27.826;2023-05-11T10:04:02;99742.34;;;30.94;29.09
11349;BME280;5729;43.570;27.826;2023-05-11T10:06:45;99748.16;;;31.35;27.26
11349;BME280;5729;43.570;27.826;2023-05-11T10:09:12;99756.31;;;31.09;28.78
11349;BME280;5729;43.570;27.826;2023-05-11T10:11:43;99754.44;;;32.00;27.42
11349;BME280;5729;43.570;27.826;2023-05-11T10:14:11;99754.16;;;30.75;28.33
11349;BME280;5729;43.570;27.826;2023-05-11T10:16:41;99744.75;;;32.16;27.50
11349;BME280;5729;43.570;27.826;2023-05-11T10:19:07;99744.13;;;32.46;27.35
11349;BME280;5729;43.570;27.826;2023-05-11T10:21:33;99742.59;;;32.92;25.61
11349;BME280;5729;43.570;27.826;2023-05-11T10:24:00;99744.97;;;30.98;27.68
11349;BME280;5729;43.570;27.826;2023-05-11T10:26:27;99746.03;;;31.30;26.76
11349;BME280;5729;43.570;27.826;2023-05-11T10:28:54;99754.09;;;31.28;26.01
11349;BME280;5729;43.570;27.826;2023-05-11T10:31:20;99742.97;;;32.79;24.98
11349;BME280;5729;43.570;27.826;2023-05-11T10:33:49;99755.53;;;33.83;23.59
11349;BME280;5729;43.570;27.826;2023-05-11T10:36:17;99741.53;;;33.83;23.80
11349;BME280;5729;43.570;27.826;2023-05-11T10:38:42;99735.22;;;32.22;24.34
11349;BME280;5729;43.570;27.826;2023-05-11T10:41:20;99736.88;;;31.94;24.87
11349;BME280;5729;43.570;27.826;2023-05-11T10:46:57;99737.94;;;30.73;25.93
11349;BME280;5729;43.570;27.826;2023-05-11T10:52:42;99741.31;;;26.39;30.80
11349;BME280;5729;43.570;27.826;2023-05-11T10:58:05;99737.53;;;24.81;32.85
11349;BME280;5729;43.570;27.826;2023-05-11T11:03:11;99741.94;;;24.17;34.88
11349;BME280;5729;43.570;27.826;2023-05-11T11:05:37;99732.78;;;26.46;31.92
11349;BME280;5729;43.570;27.826;2023-05-11T11:08:04;99731.78;;;28.16;29.74
11349;BME280;5729;43.570;27.826;2023-05-11T11:10:42;99729.88;;;29.23;29.09
11349;BME280;5729;43.570;27.826;2023-05-11T11:13:11;99737.28;;;29.17;27.90
11349;BME280;5729;43.570;27.826;2023-05-11T11:18:27;99719.19;;;26.04;31.73
11349;BME280;5729;43.570;27.826;2023-05-11T11:20:55;99735.91;;;24.96;33.50
11349;BME280;5729;43.570;27.826;2023-05-11T11:26:06;99727.09;;;26.15;31.54
11349;BME280;5729;43.570;27.826;2023-05-11T11:31:33;99729.91;;;25.52;31.96
11349;BME280;5729;43.570;27.826;2023-05-11T11:39:26;99726.47;;;24.23;34.02
11349;BME280;5729;43.570;27.826;2023-05-11T11:42:02;99724.00;;;23.80;34.71
11349;BME280;5729;43.570;27.826;2023-05-11T11:44:28;99724.16;;;23.89;34.96
11349;BME280;5729;43.570;27.826;2023-05-11T11:49:40;99713.97;;;26.07;32.61
11349;BME280;5729;43.570;27.826;2023-05-11T11:54:52;99719.50;;;24.92;33.67
11349;BME280;5729;43.570;27.826;2023-05-11T12:00:06;99717.03;;;23.75;34.83
11349;BME280;5729;43.570;27.826;2023-05-11T12:02:42;99721.13;;;22.56;36.16
11349;BME280;5729;43.570;27.826;2023-05-11T12:05:11;99716.22;;;22.00;38.29
11349;BME280;5729;43.570;27.826;2023-05-11T12:07:40;99708.13;;;22.79;36.64
11349;BME280;5729;43.570;27.826;2023-05-11T12:10:07;99696.88;;;24.11;37.23
11349;BME280;5729;43.570;27.826;2023-05-11T12:12:36;99712.03;;;25.31;34.22
11349;BME280;5729;43.570;27.826;2023-05-11T12:15:02;99714.19;;;24.56;34.59
11349;BME280;5729;43.570;27.826;2023-05-11T12:17:28;99715.44;;;24.07;36.00
11349;BME280;5729;43.570;27.826;2023-05-11T12:19:55;99709.28;;;24.03;35.20
11349;BME280;5729;43.570;27.826;2023-05-11T12:22:36;99717.34;;;23.61;35.17
11349;BME280;5729;43.570;27.826;2023-05-11T12:25:04;99703.50;;;22.33;36.22
11349;BME280;5729;43.570;27.826;2023-05-11T12:27:30;99721.88;;;21.63;39.97
11349;BME280;5729;43.570;27.826;2023-05-11T12:29:56;99717.34;;;20.92;45.01
11349;BME280;5729;43.570;27.826;2023-05-11T12:32:28;99701.22;;;20.26;48.18
11349;BME280;5729;43.570;27.826;2023-05-11T12:35:00;99703.09;;;20.36;49.47
11349;BME280;5729;43.570;27.826;2023-05-11T12:37:28;99714.81;;;19.96;51.75
11349;BME280;5729;43.570;27.826;2023-05-11T12:39:54;99705.44;;;19.93;53.63
11349;BME280;5729;43.570;27.826;2023-05-11T12:42:20;99705.91;;;19.84;55.37
11349;BME280;5729;43.570;27.826;2023-05-11T12:44:46;99705.16;;;19.77;59.23
11349;BME280;5729;43.570;27.826;2023-05-11T12:47:12;99707.31;;;20.00;64.41
11349;BME280;5729;43.570;27.826;2023-05-11T12:49:40;99703.38;;;21.44;57.90
11349;BME280;5729;43.570;27.826;2023-05-11T12:52:06;99691.97;;;23.01;49.32
11349;BME280;5729;43.570;27.826;2023-05-11T12:54:40;99687.63;;;23.20;44.42
11349;BME280;5729;43.570;27.826;2023-05-11T12:57:24;99692.75;;;21.96;48.23
11349;BME280;5729;43.570;27.826;2023-05-11T13:00:22;99694.31;;;20.11;55.05
11349;BME280;5729;43.570;27.826;2023-05-11T13:02:51;99688.03;;;20.17;61.52
11349;BME280;5729;43.570;27.826;2023-05-11T13:05:22;99685.50;;;21.82;57.69
11349;BME280;5729;43.570;27.826;2023-05-11T13:08:04;99691.16;;;21.98;49.94
11349;BME280;5729;43.570;27.826;2023-05-11T13:10:30;99685.53;;;21.32;49.93
11349;BME280;5729;43.570;27.826;2023-05-11T13:12:56;99681.41;;;21.17;51.81
11349;BME280;5729;43.570;27.826;2023-05-11T13:15:23;99685.63;;;20.60;53.82
11349;BME280;5729;43.570;27.826;2023-05-11T13:18:01;99687.63;;;20.19;61.19
11349;BME280;5729;43.570;27.826;2023-05-11T13:20:32;99688.72;;;19.84;62.62
11349;BME280;5729;43.570;27.826;2023-05-11T13:23:15;99676.34;;;19.65;58.86
11349;BME280;5729;43.570;27.826;2023-05-11T13:28:15;99665.16;;;21.33;52.00
11349;BME280;5729;43.570;27.826;2023-05-11T13:30:41;99655.03;;;23.02;46.37
11349;BME280;5729;43.570;27.826;2023-05-11T13:33:07;99661.38;;;22.60;48.17
11349;BME280;5729;43.570;27.826;2023-05-11T13:35:37;99665.06;;;21.63;49.56
11349;BME280;5729;43.570;27.826;2023-05-11T13:38:02;99671.97;;;20.57;53.17
11349;BME280;5729;43.570;27.826;2023-05-11T13:40:28;99670.16;;;19.57;57.13
11349;BME280;5729;43.570;27.826;2023-05-11T13:42:53;99660.28;;;19.12;59.42
11349;BME280;5729;43.570;27.826;2023-05-11T13:45:19;99661.31;;;19.36;59.30